createdAt,value
2017-06-26T00:00:43.966Z,99.99
2017-06-26T00:01:43.957Z,99.99
2017-06-26T00:02:43.940Z,99.99
2017-06-26T00:03:43.929Z,99.99
2017-06-26T00:04:43.916Z,99.99
2017-06-26T00:05:43.905Z,99.99
2017-06-26T00:06:43.890Z,99.99
2017-06-26T00:07:43.876Z,99.99
2017-06-26T00:08:43.867Z,99.99
2017-06-26T00:09:43.854Z,99.99
2017-06-26T00:10:43.838Z,99.99
2017-06-26T00:11:43.829Z,99.99
2017-06-26T00:12:43.815Z,99.99
2017-06-26T00:13:43.805Z,99.99
2017-06-26T00:14:43.792Z,99.99
2017-06-26T00:15:43.780Z,99.99
2017-06-26T00:16:43.768Z,99.99
2017-06-26T00:17:43.753Z,99.99
2017-06-26T00:18:43.742Z,99.99
2017-06-26T00:19:43.729Z,99.99
2017-06-26T00:20:43.717Z,99.99
2017-06-26T00:21:43.406Z,99.99
2017-06-26T00:22:43.691Z,99.99
2017-06-26T00:23:43.680Z,99.99
2017-06-26T00:24:43.669Z,99.99
2017-06-26T00:25:43.656Z,99.99
2017-06-26T00:26:43.644Z,99.99
2017-06-26T00:27:43.632Z,99.99
2017-06-26T00:28:43.618Z,99.99
2017-06-26T00:29:43.612Z,99.99
2017-06-26T00:30:43.597Z,99.99
2017-06-26T00:31:43.582Z,99.99
2017-06-26T00:32:43.569Z,99.99
2017-06-26T00:33:43.558Z,99.99
2017-06-26T00:34:43.553Z,99.99
2017-06-26T00:35:43.538Z,99.99
2017-06-26T00:36:43.519Z,99.99
2017-06-26T00:37:43.508Z,99.99
2017-06-26T00:38:43.495Z,99.99
2017-06-26T00:39:43.483Z,99.99
2017-06-26T00:40:43.473Z,99.99
2017-06-26T00:41:43.461Z,99.99
2017-06-26T00:42:43.447Z,99.99
2017-06-26T00:43:43.435Z,99.99
2017-06-26T00:44:43.422Z,99.99
2017-06-26T00:45:43.412Z,99.99
2017-06-26T00:46:43.400Z,99.99
2017-06-26T00:47:43.387Z,99.99
2017-06-26T00:48:43.373Z,99.99
2017-06-26T00:49:43.362Z,99.99
2017-06-26T00:50:43.372Z,99.99
2017-06-26T00:51:43.340Z,99.99
2017-06-26T00:52:43.323Z,99.99
2017-06-26T00:53:43.314Z,99.99
2017-06-26T00:54:43.300Z,99.99
2017-06-26T00:55:43.289Z,99.99
2017-06-26T00:56:43.274Z,99.99
2017-06-26T00:57:43.261Z,99.99
2017-06-26T00:58:43.249Z,99.99
2017-06-26T00:59:43.238Z,99.99
2017-06-26T01:00:42.922Z,99.99
2017-06-26T01:01:43.213Z,99.99
2017-06-26T01:02:43.199Z,99.99
2017-06-26T01:03:43.191Z,99.99
2017-06-26T01:04:43.176Z,99.99
2017-06-26T01:05:43.164Z,99.99
2017-06-26T01:06:43.151Z,99.99
2017-06-26T01:07:43.140Z,99.99
2017-06-26T01:08:43.125Z,99.99
2017-06-26T01:09:43.115Z,99.99
2017-06-26T01:10:43.102Z,99.99
2017-06-26T01:11:43.092Z,99.99
2017-06-26T01:12:43.076Z,99.99
2017-06-26T01:13:43.063Z,99.99
2017-06-26T01:14:43.060Z,99.99
2017-06-26T01:15:43.040Z,99.99
2017-06-26T01:16:43.031Z,99.99
2017-06-26T01:17:43.013Z,99.99
2017-06-26T01:18:43.006Z,99.99
2017-06-26T01:19:42.991Z,99.99
2017-06-26T01:20:42.979Z,99.99
2017-06-26T01:21:42.967Z,99.99
2017-06-26T01:22:42.955Z,99.99
2017-06-26T01:23:42.942Z,99.99
2017-06-26T01:24:42.933Z,99.99
2017-06-26T01:25:42.616Z,99.99
2017-06-26T01:26:42.908Z,99.99
2017-06-26T01:27:42.895Z,99.99
2017-06-26T01:28:42.880Z,99.99
2017-06-26T01:29:42.866Z,99.99
2017-06-26T01:30:42.852Z,99.99
2017-06-26T01:31:42.843Z,99.99
2017-06-26T01:32:42.833Z,99.99
2017-06-26T01:33:42.817Z,99.99
2017-06-26T01:34:42.807Z,99.99
2017-06-26T01:35:42.492Z,99.99
2017-06-26T01:36:42.781Z,99.99
2017-06-26T01:37:42.766Z,99.99
2017-06-26T01:38:42.756Z,99.99
2017-06-26T01:39:42.742Z,99.99
2017-06-26T01:40:42.731Z,99.99
2017-06-26T01:41:42.718Z,99.99
2017-06-26T01:42:42.703Z,99.99
2017-06-26T01:43:42.695Z,99.99
2017-06-26T01:44:42.679Z,99.99
2017-06-26T01:45:42.666Z,99.99
2017-06-26T01:46:42.654Z,99.99
2017-06-26T01:47:42.641Z,99.99
2017-06-26T01:48:42.629Z,99.99
2017-06-26T01:49:42.616Z,99.99
2017-06-26T01:50:42.604Z,99.99
2017-06-26T01:51:42.293Z,99.99
2017-06-26T01:52:42.583Z,99.99
2017-06-26T01:53:42.567Z,99.99
2017-06-26T01:54:42.556Z,99.99
2017-06-26T01:55:42.543Z,99.99
2017-06-26T01:56:42.527Z,99.99
2017-06-26T01:57:42.514Z,99.99
2017-06-26T01:58:42.505Z,99.99
2017-06-26T01:59:42.497Z,99.99
2017-06-26T02:00:42.499Z,99.99
2017-06-26T02:01:42.466Z,99.99
2017-06-26T02:02:42.455Z,99.99
2017-06-26T02:03:42.440Z,99.99
2017-06-26T02:04:42.630Z,99.99
2017-06-26T02:05:42.417Z,99.99
2017-06-26T02:06:42.403Z,99.99
2017-06-26T02:07:42.091Z,99.99
2017-06-26T02:08:42.582Z,99.99
2017-06-26T02:09:42.367Z,99.99
2017-06-26T02:10:42.359Z,99.99
2017-06-26T02:11:42.342Z,99.99
2017-06-26T02:12:42.330Z,99.99
2017-06-26T02:13:42.318Z,99.99
2017-06-26T02:14:42.309Z,99.99
2017-06-26T02:15:42.298Z,99.99
2017-06-26T02:16:42.281Z,99.99
2017-06-26T02:17:42.271Z,99.99
2017-06-26T02:18:42.259Z,99.99
2017-06-26T02:19:42.244Z,99.99
2017-06-26T02:20:42.235Z,99.99
2017-06-26T02:21:42.222Z,99.99
2017-06-26T02:22:42.207Z,99.99
2017-06-26T02:23:42.193Z,99.99
2017-06-26T02:24:42.186Z,99.99
2017-06-26T02:25:42.173Z,99.99
2017-06-26T02:26:42.159Z,99.99
2017-06-26T02:27:42.144Z,99.99
2017-06-26T02:28:42.135Z,99.99
2017-06-26T02:29:42.120Z,99.99
2017-06-26T02:30:42.107Z,99.99
2017-06-26T02:31:42.097Z,99.99
2017-06-26T02:32:42.083Z,99.99
2017-06-26T02:33:42.071Z,99.99
2017-06-26T02:34:42.263Z,99.99
2017-06-26T02:35:42.046Z,99.99
2017-06-26T02:36:42.036Z,99.99
2017-06-26T02:37:42.020Z,99.99
2017-06-26T02:38:42.011Z,99.99
2017-06-26T02:39:56.612Z,99.99
2017-06-26T02:40:42.195Z,99.99
2017-06-26T02:41:41.971Z,99.99
2017-06-26T02:42:41.661Z,99.99
2017-06-26T02:43:41.947Z,99.99
2017-06-26T02:44:41.939Z,99.99
2017-06-26T02:45:41.926Z,99.99
2017-06-26T02:46:41.913Z,99.99
2017-06-26T02:47:41.898Z,99.99
2017-06-26T02:48:41.886Z,99.99
2017-06-26T02:49:41.875Z,99.99
2017-06-26T02:50:41.863Z,99.99
2017-06-26T02:51:41.852Z,99.99
2017-06-26T02:52:41.838Z,99.99
2017-06-26T02:53:41.824Z,99.99
2017-06-26T02:54:41.814Z,99.99
2017-06-26T02:55:41.803Z,99.99
2017-06-26T02:56:41.792Z,99.99
2017-06-26T02:57:41.783Z,99.99
2017-06-26T02:58:41.763Z,99.99
2017-06-26T02:59:41.751Z,99.99
2017-06-26T03:00:41.742Z,99.99
2017-06-26T03:01:41.729Z,99.99
2017-06-26T03:02:41.714Z,99.99
2017-06-26T03:03:41.705Z,99.99
2017-06-26T03:04:41.694Z,99.99
2017-06-26T03:05:41.680Z,99.99
2017-06-26T03:06:41.667Z,99.99
2017-06-26T03:07:41.353Z,99.99
2017-06-26T03:08:41.643Z,99.99
2017-06-26T03:09:41.631Z,99.99
2017-06-26T03:10:41.820Z,99.99
2017-06-26T03:11:41.304Z,99.99
2017-06-26T03:12:41.590Z,99.99
2017-06-26T03:13:41.582Z,99.99
2017-06-26T03:14:41.567Z,99.99
2017-06-26T03:15:41.768Z,99.99
2017-06-26T03:16:41.760Z,99.99
2017-06-26T03:17:41.531Z,99.99
2017-06-26T03:18:41.520Z,99.99
2017-06-26T03:19:41.505Z,99.99
2017-06-26T03:20:41.490Z,99.99
2017-06-26T03:21:41.179Z,99.99
2017-06-26T03:22:41.169Z,99.99
2017-06-26T03:23:41.457Z,99.99
2017-06-26T03:24:41.446Z,99.99
2017-06-26T03:25:41.433Z,99.99
2017-06-26T03:26:41.417Z,99.99
2017-06-26T03:27:41.410Z,99.99
2017-06-26T03:28:41.395Z,99.99
2017-06-26T03:29:41.381Z,99.99
2017-06-26T03:30:41.368Z,99.99
2017-06-26T03:31:41.357Z,99.99
2017-06-26T03:32:41.343Z,99.99
2017-06-26T03:33:41.330Z,99.99
2017-06-26T03:34:41.323Z,99.99
2017-06-26T03:35:41.308Z,99.99
2017-06-26T03:36:41.294Z,99.99
2017-06-26T03:37:41.280Z,99.99
2017-06-26T03:38:41.289Z,99.99
2017-06-26T03:39:41.257Z,99.99
2017-06-26T03:40:41.244Z,99.99
2017-06-26T03:41:41.232Z,99.99
2017-06-26T03:42:41.218Z,99.99
2017-06-26T03:43:41.206Z,99.99
2017-06-26T03:44:41.197Z,99.99
2017-06-26T03:45:40.884Z,99.99
2017-06-26T03:46:41.370Z,99.99
2017-06-26T03:47:41.160Z,99.99
2017-06-26T03:48:41.145Z,99.99
2017-06-26T03:49:41.134Z,99.99
2017-06-26T03:50:41.122Z,99.99
2017-06-26T03:51:41.321Z,99.99
2017-06-26T03:52:41.308Z,99.99
2017-06-26T03:53:41.087Z,99.99
2017-06-26T03:54:41.073Z,99.99
2017-06-26T03:55:41.059Z,99.99
2017-06-26T03:56:41.048Z,99.99
2017-06-26T03:57:41.035Z,99.99
2017-06-26T03:58:41.022Z,99.99
2017-06-26T03:59:41.010Z,99.99
2017-06-26T04:00:41.021Z,99.99
2017-06-26T04:01:40.984Z,99.99
2017-06-26T04:02:40.976Z,99.99
2017-06-26T04:03:40.958Z,99.99
2017-06-26T04:04:40.952Z,99.99
2017-06-26T04:05:40.934Z,99.99
2017-06-26T04:06:40.924Z,99.99
2017-06-26T04:07:40.911Z,99.99
2017-06-26T04:08:40.896Z,99.99
2017-06-26T04:09:40.887Z,99.99
2017-06-26T04:10:40.875Z,99.99
2017-06-26T04:11:40.860Z,99.99
2017-06-26T04:12:40.849Z,99.99
2017-06-26T04:13:40.838Z,99.99
2017-06-26T04:14:40.826Z,99.99
2017-06-26T04:15:40.813Z,99.99
2017-06-26T04:16:40.803Z,99.99
2017-06-26T04:17:40.787Z,99.99
2017-06-26T04:18:40.777Z,99.99
2017-06-26T04:19:40.762Z,99.99
2017-06-26T04:20:40.753Z,99.99
2017-06-26T04:21:40.738Z,99.99
2017-06-26T04:22:40.931Z,99.99
2017-06-26T04:23:40.718Z,99.99
2017-06-26T04:24:40.705Z,99.99
2017-06-26T04:25:40.690Z,99.99
2017-06-26T04:26:40.679Z,99.99
2017-06-26T04:27:40.666Z,99.99
2017-06-26T04:28:40.652Z,99.99
2017-06-26T04:29:40.643Z,99.99
2017-06-26T04:30:40.631Z,99.99
2017-06-26T04:31:40.617Z,99.99
2017-06-26T04:32:40.603Z,99.99
2017-06-26T04:33:40.596Z,99.99
2017-06-26T04:34:40.583Z,99.99
2017-06-26T04:35:40.567Z,99.99
2017-06-26T04:36:40.557Z,99.99
2017-06-26T04:37:40.549Z,99.99
2017-06-26T04:38:40.533Z,99.99
2017-06-26T04:39:40.523Z,99.99
2017-06-26T04:40:40.510Z,99.99
2017-06-26T04:41:40.499Z,99.99
2017-06-26T04:42:40.486Z,99.99
2017-06-26T04:43:40.472Z,99.99
2017-06-26T04:44:40.463Z,99.99
2017-06-26T04:45:40.446Z,99.99
2017-06-26T04:46:40.437Z,99.99
2017-06-26T04:47:40.427Z,99.99
2017-06-26T04:48:40.417Z,99.99
2017-06-26T04:49:40.402Z,99.99
2017-06-26T04:50:40.390Z,99.99
2017-06-26T04:51:40.378Z,99.99
2017-06-26T04:52:40.366Z,99.99
2017-06-26T04:53:40.353Z,99.99
2017-06-26T04:54:40.341Z,99.99
2017-06-26T04:55:40.331Z,99.99
2017-06-26T04:56:40.319Z,99.99
2017-06-26T04:57:40.308Z,99.99
2017-06-26T04:58:40.297Z,99.99
2017-06-26T04:59:40.282Z,99.99
2017-06-26T05:00:40.275Z,99.99
2017-06-26T05:01:40.259Z,99.99
2017-06-26T05:02:40.249Z,99.99
2017-06-26T05:03:40.239Z,99.99
2017-06-26T05:04:40.250Z,99.99
2017-06-26T05:05:40.215Z,99.99
2017-06-26T05:06:40.205Z,99.99
2017-06-26T05:07:40.194Z,99.99
2017-06-26T05:08:40.182Z,99.99
2017-06-26T05:09:40.175Z,99.99
2017-06-26T05:10:40.160Z,99.99
2017-06-26T05:11:40.152Z,99.99
2017-06-26T05:12:40.134Z,99.99
2017-06-26T05:13:40.123Z,99.99
2017-06-26T05:14:40.116Z,99.99
2017-06-26T05:15:40.101Z,99.99
2017-06-26T05:16:40.095Z,99.99
2017-06-26T05:17:40.082Z,99.99
2017-06-26T05:18:40.068Z,99.99
2017-06-26T05:19:40.059Z,99.99
2017-06-26T05:20:40.048Z,99.99
2017-06-26T05:21:40.036Z,99.99
2017-06-26T05:22:40.028Z,99.99
2017-06-26T05:23:40.012Z,99.99
2017-06-26T05:24:40.015Z,99.99
2017-06-26T05:25:39.991Z,99.99
2017-06-26T05:26:39.683Z,99.99
2017-06-26T05:27:39.969Z,99.99
2017-06-26T05:28:39.964Z,99.99
2017-06-26T05:29:39.949Z,99.99
2017-06-26T05:30:39.939Z,99.99
2017-06-26T05:31:39.931Z,99.99
2017-06-26T05:32:39.918Z,99.99
2017-06-26T05:33:39.905Z,99.99
2017-06-26T05:34:39.898Z,99.99
2017-06-26T05:35:39.585Z,99.99
2017-06-26T05:36:39.873Z,99.99
2017-06-26T05:37:39.864Z,99.99
2017-06-26T05:38:39.853Z,99.99
2017-06-26T05:39:39.844Z,99.99
2017-06-26T05:40:39.831Z,99.99
2017-06-26T05:41:39.820Z,99.99
2017-06-26T05:42:39.812Z,99.99
2017-06-26T05:43:39.800Z,99.99
2017-06-26T05:44:39.790Z,99.99
2017-06-26T05:45:39.481Z,99.99
2017-06-26T05:46:39.770Z,99.99
2017-06-26T05:47:39.758Z,99.99
2017-06-26T05:48:39.749Z,99.99
2017-06-26T05:49:39.736Z,99.99
2017-06-26T05:50:39.427Z,99.99
2017-06-26T05:51:39.718Z,99.99
2017-06-26T05:52:39.710Z,99.99
2017-06-26T05:53:39.702Z,99.99
2017-06-26T05:54:39.688Z,99.99
2017-06-26T05:55:39.683Z,99.99
2017-06-26T05:56:39.673Z,99.99
2017-06-26T05:57:39.663Z,99.99
2017-06-26T05:58:39.350Z,99.99
2017-06-26T05:59:39.339Z,99.99
2017-06-26T06:00:39.632Z,99.99
2017-06-26T06:01:39.623Z,99.99
2017-06-26T06:02:39.615Z,99.99
2017-06-26T06:03:39.602Z,99.99
2017-06-26T06:04:39.596Z,99.99
2017-06-26T06:05:39.588Z,99.99
2017-06-26T06:06:39.579Z,99.99
2017-06-26T06:07:39.568Z,99.99
2017-06-26T06:08:39.555Z,99.99
2017-06-26T06:09:39.548Z,99.99
2017-06-26T06:10:39.538Z,99.99
2017-06-26T06:11:39.526Z,99.99
2017-06-26T06:12:39.517Z,99.99
2017-06-26T06:13:39.506Z,99.99
2017-06-26T06:14:39.502Z,99.99
2017-06-26T06:15:39.487Z,99.99
2017-06-26T06:16:39.481Z,99.99
2017-06-26T06:17:39.471Z,99.99
2017-06-26T06:18:39.462Z,99.99
2017-06-26T06:19:39.151Z,99.99
2017-06-26T06:20:39.442Z,99.99
2017-06-26T06:21:39.430Z,99.99
2017-06-26T06:22:39.423Z,99.99
2017-06-26T06:23:39.418Z,99.99
2017-06-26T06:24:39.404Z,99.99
2017-06-26T06:25:39.396Z,99.99
2017-06-26T06:26:39.383Z,99.99
2017-06-26T06:27:39.377Z,99.99
2017-06-26T06:28:39.364Z,99.99
2017-06-26T06:29:39.355Z,99.99
2017-06-26T06:30:39.341Z,99.99
2017-06-26T06:31:39.032Z,99.99
2017-06-26T06:32:39.322Z,99.99
2017-06-26T06:33:39.318Z,99.99
2017-06-26T06:34:39.306Z,99.99
2017-06-26T06:35:38.997Z,99.99
2017-06-26T06:36:39.287Z,99.99
2017-06-26T06:37:39.275Z,99.99
2017-06-26T06:38:39.268Z,99.99
2017-06-26T06:39:39.259Z,99.99
2017-06-26T06:40:39.251Z,99.99
2017-06-26T06:41:39.237Z,99.99
2017-06-26T06:42:39.232Z,99.99
2017-06-26T06:43:39.222Z,99.99
2017-06-26T06:44:38.910Z,99.99
2017-06-26T06:45:39.200Z,99.99
2017-06-26T06:46:39.194Z,99.99
2017-06-26T06:47:39.182Z,99.99
2017-06-26T06:48:39.174Z,99.99
2017-06-26T06:49:39.162Z,99.99
2017-06-26T06:50:39.156Z,99.99
2017-06-26T06:51:39.142Z,99.99
2017-06-26T06:52:39.135Z,99.99
2017-06-26T06:53:39.123Z,99.99
2017-06-26T06:54:39.116Z,99.99
2017-06-26T06:55:39.107Z,99.99
2017-06-26T06:56:39.096Z,99.99
2017-06-26T06:57:39.089Z,99.99
2017-06-26T06:58:39.080Z,99.99
2017-06-26T06:59:39.067Z,99.99
2017-06-26T07:00:39.061Z,99.99
2017-06-26T07:01:39.053Z,99.99
2017-06-26T07:02:39.066Z,99.99
2017-06-26T07:03:38.731Z,99.99
2017-06-26T07:04:39.023Z,99.99
2017-06-26T07:05:39.042Z,99.99
2017-06-26T07:06:39.005Z,99.99
2017-06-26T07:07:38.998Z,99.99
2017-06-26T07:08:38.986Z,99.99
2017-06-26T07:09:38.979Z,99.99
2017-06-26T07:10:38.971Z,99.99
2017-06-26T07:11:38.963Z,99.99
2017-06-26T07:12:38.958Z,99.99
2017-06-26T07:13:38.942Z,99.99
2017-06-26T07:14:38.935Z,99.99
2017-06-26T07:15:38.926Z,99.99
2017-06-26T07:16:38.917Z,99.99
2017-06-26T07:17:38.911Z,99.99
2017-06-26T07:18:38.903Z,99.99
2017-06-26T07:19:38.894Z,99.99
2017-06-26T07:20:38.583Z,99.99
2017-06-26T07:21:38.874Z,99.99
2017-06-26T07:22:38.867Z,99.99
2017-06-26T07:23:38.861Z,99.99
2017-06-26T07:24:38.850Z,99.99
2017-06-26T07:25:38.842Z,99.99
2017-06-26T07:26:38.834Z,99.99
2017-06-26T07:27:38.825Z,99.99
2017-06-26T07:28:38.815Z,99.99
2017-06-26T07:29:38.812Z,99.99
2017-06-26T07:30:38.797Z,99.99
2017-06-26T07:31:38.790Z,99.99
2017-06-26T07:32:38.782Z,99.99
2017-06-26T07:33:38.769Z,99.99
2017-06-26T07:34:38.766Z,99.99
2017-06-26T07:35:38.757Z,99.99
2017-06-26T07:36:38.751Z,99.99
2017-06-26T07:37:38.741Z,99.99
2017-06-26T07:38:38.732Z,99.99
2017-06-26T07:39:38.426Z,99.99
2017-06-26T07:40:38.719Z,99.99
2017-06-26T07:41:38.710Z,99.99
2017-06-26T07:42:38.703Z,99.99
2017-06-26T07:43:38.697Z,99.99
2017-06-26T07:44:38.687Z,99.99
2017-06-26T07:45:38.681Z,99.99
2017-06-26T07:46:38.673Z,99.99
2017-06-26T07:47:38.667Z,99.99
2017-06-26T07:48:38.660Z,99.99
2017-06-26T07:49:38.653Z,99.99
2017-06-26T07:50:38.644Z,99.99
2017-06-26T07:51:38.638Z,99.99
2017-06-26T07:52:38.632Z,99.99
2017-06-26T07:53:38.629Z,99.99
2017-06-26T07:54:38.616Z,99.99
2017-06-26T07:55:38.612Z,99.99
2017-06-26T07:56:38.606Z,99.99
2017-06-26T07:57:38.599Z,99.99
2017-06-26T07:58:38.592Z,99.99
2017-06-26T07:59:38.588Z,99.99
2017-06-26T08:00:38.580Z,99.99
2017-06-26T08:01:38.573Z,99.99
2017-06-26T08:02:38.565Z,99.99
2017-06-26T08:03:38.584Z,99.99
2017-06-26T08:04:38.559Z,99.99
2017-06-26T08:05:38.548Z,99.99
2017-06-26T08:06:38.547Z,99.99
2017-06-26T08:07:38.538Z,99.99
2017-06-26T08:08:38.533Z,99.99
2017-06-26T08:09:38.525Z,99.99
2017-06-26T08:10:38.519Z,99.99
2017-06-26T08:11:38.513Z,99.99
2017-06-26T08:12:38.506Z,99.99
2017-06-26T08:13:38.217Z,99.99
2017-06-26T08:14:38.191Z,99.99
2017-06-26T08:15:38.485Z,99.99
2017-06-26T08:16:38.478Z,99.99
2017-06-26T08:17:38.476Z,99.99
2017-06-26T08:18:38.465Z,99.99
2017-06-26T08:19:38.461Z,99.99
2017-06-26T08:20:38.453Z,99.99
2017-06-26T08:21:38.449Z,99.99
2017-06-26T08:22:38.440Z,99.99
2017-06-26T08:23:38.431Z,99.99
2017-06-26T08:24:38.423Z,99.99
2017-06-26T08:25:38.418Z,99.99
2017-06-26T08:26:38.411Z,99.99
2017-06-26T08:27:38.406Z,99.99
2017-06-26T08:28:38.399Z,99.99
2017-06-26T08:29:38.395Z,99.99
2017-06-26T08:30:38.392Z,99.99
2017-06-26T08:31:38.383Z,99.99
2017-06-26T08:32:38.374Z,99.99
2017-06-26T08:33:38.370Z,99.99
2017-06-26T08:34:38.365Z,99.99
2017-06-26T08:35:38.360Z,99.99
2017-06-26T08:36:38.351Z,99.99
2017-06-26T08:37:38.349Z,99.99
2017-06-26T08:38:38.338Z,99.99
2017-06-26T08:39:38.336Z,99.99
2017-06-26T08:40:38.329Z,99.99
2017-06-26T08:41:38.327Z,99.99
2017-06-26T08:42:38.314Z,99.99
2017-06-26T08:43:38.311Z,99.99
2017-06-26T08:44:38.304Z,99.99
2017-06-26T08:45:38.298Z,99.99
2017-06-26T08:46:38.292Z,99.99
2017-06-26T08:47:38.286Z,99.99
2017-06-26T08:48:38.281Z,99.99
2017-06-26T08:49:38.271Z,99.99
2017-06-26T08:50:38.264Z,99.99
2017-06-26T08:51:38.267Z,99.99
2017-06-26T08:52:38.251Z,99.99
2017-06-26T08:53:38.248Z,99.99
2017-06-26T08:54:38.240Z,99.99
2017-06-26T08:55:38.234Z,99.99
2017-06-26T08:56:38.226Z,99.99
2017-06-26T08:57:38.223Z,99.99
2017-06-26T08:58:38.217Z,99.99
2017-06-26T08:59:38.212Z,99.99
2017-06-26T09:00:38.207Z,99.99
2017-06-26T09:01:38.201Z,99.99
2017-06-26T09:02:38.194Z,99.99
2017-06-26T09:03:38.192Z,99.99
2017-06-26T09:04:38.183Z,99.99
2017-06-26T09:05:38.177Z,99.99
2017-06-26T09:06:38.176Z,99.99
2017-06-26T09:07:38.170Z,99.99
2017-06-26T09:08:38.167Z,99.99
2017-06-26T09:09:38.160Z,99.99
2017-06-26T09:10:38.153Z,99.99
2017-06-26T09:11:38.180Z,99.99
2017-06-26T09:12:38.148Z,99.99
2017-06-26T09:13:38.140Z,99.99
2017-06-26T09:14:38.134Z,99.99
2017-06-26T09:15:38.126Z,99.99
2017-06-26T09:16:38.125Z,99.99
2017-06-26T09:17:37.817Z,99.99
2017-06-26T09:18:38.112Z,99.99
2017-06-26T09:19:38.108Z,99.99
2017-06-26T09:20:38.100Z,99.99
2017-06-26T09:21:38.097Z,99.99
2017-06-26T09:22:38.092Z,99.99
2017-06-26T09:23:38.086Z,99.99
2017-06-26T09:24:38.081Z,99.99
2017-06-26T09:25:38.077Z,99.99
2017-06-26T09:26:38.069Z,99.99
2017-06-26T09:27:38.065Z,99.99
2017-06-26T09:28:38.060Z,99.99
2017-06-26T09:29:38.054Z,99.99
2017-06-26T09:30:38.051Z,99.99
2017-06-26T09:31:38.045Z,99.99
2017-06-26T09:32:38.038Z,99.99
2017-06-26T09:33:38.034Z,99.99
2017-06-26T09:34:37.730Z,99.99
2017-06-26T09:35:38.024Z,99.99
2017-06-26T09:36:38.022Z,99.99
2017-06-26T09:37:38.009Z,99.99
2017-06-26T09:38:38.006Z,99.99
2017-06-26T09:39:38.002Z,99.99
2017-06-26T09:40:37.995Z,99.99
2017-06-26T09:41:37.991Z,99.99
2017-06-26T09:42:37.982Z,99.99
2017-06-26T09:43:37.677Z,99.99
2017-06-26T09:44:37.979Z,99.99
2017-06-26T09:45:37.967Z,99.99
2017-06-26T09:46:37.960Z,99.99
2017-06-26T09:47:37.958Z,99.99
2017-06-26T09:48:37.951Z,99.99
2017-06-26T09:49:37.645Z,99.99
2017-06-26T09:50:37.639Z,99.99
2017-06-26T09:51:37.934Z,99.96
2017-06-26T09:52:37.935Z,99.99
2017-06-26T09:53:37.924Z,99.99
2017-06-26T09:54:37.923Z,99.76
2017-06-26T09:55:37.612Z,99.81
2017-06-26T09:56:37.912Z,99.9
2017-06-26T09:57:37.904Z,99.99
2017-06-26T09:58:37.898Z,99.96
2017-06-26T09:59:37.892Z,99.96
2017-06-26T10:00:37.587Z,99.86
2017-06-26T10:01:37.886Z,99.81
2017-06-26T10:02:37.878Z,99.99
2017-06-26T10:03:37.875Z,99.72
2017-06-26T10:04:37.871Z,99.91
2017-06-26T10:05:37.863Z,99.72
2017-06-26T10:06:37.858Z,99.38
2017-06-26T10:07:37.853Z,99.29
2017-06-26T10:08:37.851Z,99.24
2017-06-26T10:09:37.844Z,98.81
2017-06-26T10:10:37.837Z,99.24
2017-06-26T10:11:37.836Z,99.04
2017-06-26T10:12:37.832Z,99.09
2017-06-26T10:13:37.825Z,99.09
2017-06-26T10:14:37.819Z,99.48
2017-06-26T10:15:37.815Z,99.99
2017-06-26T10:16:37.805Z,99.99
2017-06-26T10:17:37.802Z,99.67
2017-06-26T10:18:37.798Z,99.62
2017-06-26T10:19:37.792Z,99.72
2017-06-26T10:20:37.783Z,98.95
2017-06-26T10:21:37.780Z,99.05
2017-06-26T10:22:37.774Z,98.86
2017-06-26T10:23:37.768Z,99
2017-06-26T10:24:37.764Z,99.39
2017-06-26T10:25:37.757Z,99.05
2017-06-26T10:26:37.753Z,98.72
2017-06-26T10:27:37.750Z,97.8
2017-06-26T10:28:37.742Z,97.42
2017-06-26T10:29:37.739Z,97.71
2017-06-26T10:30:37.736Z,97.38
2017-06-26T10:31:37.735Z,97.33
2017-06-26T10:32:37.729Z,97.56
2017-06-26T10:33:37.420Z,96.89
2017-06-26T10:34:37.726Z,96.66
2017-06-26T10:35:37.713Z,96.37
2017-06-26T10:36:37.712Z,96.18
2017-06-26T10:37:37.707Z,95.51
2017-06-26T10:38:37.703Z,95.7
2017-06-26T10:39:37.697Z,95.46
2017-06-26T10:40:37.696Z,95.22
2017-06-26T10:41:37.692Z,95.79
2017-06-26T10:42:37.684Z,95.51
2017-06-26T10:43:37.682Z,96.03
2017-06-26T10:44:37.675Z,95.75
2017-06-26T10:45:37.677Z,95.75
2017-06-26T10:46:37.670Z,95.94
2017-06-26T10:47:37.666Z,96.13
2017-06-26T10:48:37.661Z,96.42
2017-06-26T10:49:37.660Z,95.94
2017-06-26T10:50:37.653Z,95.89
2017-06-26T10:51:37.651Z,96.03
2017-06-26T10:52:37.346Z,96.22
2017-06-26T10:53:37.638Z,95.94
2017-06-26T10:54:37.636Z,95.94
2017-06-26T10:55:37.638Z,95.7
2017-06-26T10:56:37.632Z,95.61
2017-06-26T10:57:37.623Z,95.94
2017-06-26T10:58:37.620Z,95.84
2017-06-26T10:59:37.614Z,95.89
2017-06-26T11:00:37.611Z,95.27
2017-06-26T11:01:37.605Z,95.17
2017-06-26T11:02:37.604Z,95.22
2017-06-26T11:03:37.598Z,95.41
2017-06-26T11:04:37.595Z,95.36
2017-06-26T11:05:37.590Z,94.74
2017-06-26T11:06:37.584Z,95.03
2017-06-26T11:07:37.580Z,94.93
2017-06-26T11:08:37.271Z,94.65
2017-06-26T11:09:37.569Z,94.65
2017-06-26T11:10:37.264Z,94.36
2017-06-26T11:11:37.561Z,94.07
2017-06-26T11:12:37.556Z,93.69
2017-06-26T11:13:37.249Z,93.07
2017-06-26T11:14:37.546Z,93.4
2017-06-26T11:15:37.539Z,93.54
2017-06-26T11:16:37.536Z,93.16
2017-06-26T11:17:37.533Z,93.54
2017-06-26T11:18:37.527Z,93.35
2017-06-26T11:19:37.521Z,93.11
2017-06-26T11:20:37.517Z,92.77
2017-06-26T11:21:37.511Z,93.11
2017-06-26T11:22:37.508Z,93.02
2017-06-26T11:23:37.507Z,93.16
2017-06-26T11:24:37.501Z,92.63
2017-06-26T11:25:37.494Z,93.06
2017-06-26T11:26:37.490Z,92.67
2017-06-26T11:27:37.488Z,92.14
2017-06-26T11:28:37.482Z,92.13
2017-06-26T11:29:37.483Z,91.55
2017-06-26T11:30:37.479Z,90.34
2017-06-26T11:31:37.478Z,89.86
2017-06-26T11:32:37.475Z,90
2017-06-26T11:33:37.468Z,89.14
2017-06-26T11:34:37.166Z,88.95
2017-06-26T11:35:37.464Z,88.13
2017-06-26T11:36:37.460Z,87.96
2017-06-26T11:37:37.460Z,88.7
2017-06-26T11:38:37.467Z,88.89
2017-06-26T11:39:37.456Z,88.7
2017-06-26T11:40:37.448Z,88.9
2017-06-26T11:41:37.447Z,88.61
2017-06-26T11:42:37.442Z,88.9
2017-06-26T11:43:37.441Z,89.23
2017-06-26T11:44:37.135Z,89.52
2017-06-26T11:45:37.431Z,89.62
2017-06-26T11:46:37.430Z,89.28
2017-06-26T11:47:37.431Z,89.57
2017-06-26T11:48:37.419Z,90.23
2017-06-26T11:49:37.417Z,90
2017-06-26T11:50:37.412Z,90.43
2017-06-26T11:51:37.407Z,90.72
2017-06-26T11:52:37.403Z,90.43
2017-06-26T11:53:37.400Z,90.67
2017-06-26T11:54:37.392Z,91.24
2017-06-26T11:55:37.390Z,91
2017-06-26T11:56:37.385Z,91.09
2017-06-26T11:57:37.385Z,91.38
2017-06-26T11:58:37.381Z,91.28
2017-06-26T11:59:37.375Z,91.24
2017-06-26T12:00:37.372Z,90.9
2017-06-26T12:01:37.074Z,90.61
2017-06-26T12:02:37.371Z,90.81
2017-06-26T12:03:37.359Z,90.9
2017-06-26T12:04:37.357Z,91.24
2017-06-26T12:05:37.356Z,90.95
2017-06-26T12:06:37.351Z,91.43
2017-06-26T12:07:37.346Z,91.48
2017-06-26T12:08:37.343Z,91.66
2017-06-26T12:09:37.339Z,91.09
2017-06-26T12:10:37.335Z,91.09
2017-06-26T12:11:37.330Z,91.09
2017-06-26T12:12:37.330Z,90.9
2017-06-26T12:13:37.324Z,90.9
2017-06-26T12:14:37.324Z,91.05
2017-06-26T12:15:37.321Z,90.95
2017-06-26T12:16:37.316Z,91.19
2017-06-26T12:17:37.311Z,91.04
2017-06-26T12:18:37.308Z,91.04
2017-06-26T12:19:37.308Z,90.36
2017-06-26T12:20:37.307Z,90.16
2017-06-26T12:21:37.299Z,89.87
2017-06-26T12:22:37.296Z,89.97
2017-06-26T12:23:37.294Z,89.53
2017-06-26T12:24:36.990Z,90.02
2017-06-26T12:25:37.292Z,90.07
2017-06-26T12:26:37.290Z,90.41
2017-06-26T12:27:37.285Z,90.8
2017-06-26T12:28:37.281Z,90.75
2017-06-26T12:29:37.279Z,90.8
2017-06-26T12:30:37.277Z,90.85
2017-06-26T12:31:37.273Z,90.95
2017-06-26T12:32:37.268Z,91.77
2017-06-26T12:33:37.265Z,91.48
2017-06-26T12:34:36.960Z,91.81
2017-06-26T12:35:37.261Z,91.91
2017-06-26T12:36:37.254Z,92.3
2017-06-26T12:37:37.254Z,92.63
2017-06-26T12:38:37.250Z,92.87
2017-06-26T12:39:37.247Z,92.87
2017-06-26T12:40:37.242Z,93.11
2017-06-26T12:41:37.240Z,92.82
2017-06-26T12:42:36.939Z,93.26
2017-06-26T12:43:37.232Z,93.12
2017-06-26T12:44:37.228Z,93.93
2017-06-26T12:45:37.223Z,94.07
2017-06-26T12:46:37.221Z,94.55
2017-06-26T12:47:36.915Z,94.93
2017-06-26T12:48:37.212Z,95.03
2017-06-26T12:49:37.209Z,94.93
2017-06-26T12:50:37.205Z,94.35
2017-06-26T12:51:36.899Z,94.16
2017-06-26T12:52:37.197Z,94.26
2017-06-26T12:53:36.891Z,94.12